sensor_id;sensor_type;location;lat;lon;timestamp;pressure;altitude;pressure_sealevel;temperature;humidity
42519;BME280;28147;47.520;18.920;2023-07-29T00:00:42;98062.09;;;25.21;48.44
42519;BME280;28147;47.520;18.920;2023-07-29T00:03:08;98055.50;;;25.34;48.17
42519;BME280;28147;47.520;18.920;2023-07-29T00:05:33;98063.78;;;25.13;48.32
42519;BME280;28147;47.520;18.920;2023-07-29T00:07:59;98062.19;;;25.24;48.42
42519;BME280;28147;47.520;18.920;2023-07-29T00:10:26;98059.34;;;25.21;48.41
42519;BME280;28147;47.520;18.920;2023-07-29T00:12:51;98065.94;;;25.20;48.34
42519;BME280;28147;47.520;18.920;2023-07-29T00:15:17;98059.78;;;25.11;48.63
42519;BME280;28147;47.520;18.920;2023-07-29T00:17:42;98062.63;;;25.14;48.78
42519;BME280;28147;47.520;18.920;2023-07-29T00:20:07;98060.78;;;25.06;49.10
42519;BME280;28147;47.520;18.920;2023-07-29T00:22:33;98053.16;;;24.99;49.42
42519;BME280;28147;47.520;18.920;2023-07-29T00:24:58;98059.38;;;25.00;49.06
42519;BME280;28147;47.520;18.920;2023-07-29T00:27:24;98057.25;;;25.06;49.00
42519;BME280;28147;47.520;18.920;2023-07-29T00:29:50;98060.16;;;24.88;49.12
42519;BME280;28147;47.520;18.920;2023-07-29T00:32:16;98048.16;;;24.89;49.16
42519;BME280;28147;47.520;18.920;2023-07-29T00:34:41;98052.22;;;24.95;48.90
42519;BME280;28147;47.520;18.920;2023-07-29T00:37:07;98054.06;;;25.04;48.78
42519;BME280;28147;47.520;18.920;2023-07-29T00:39:32;98045.66;;;24.96;48.64
42519;BME280;28147;47.520;18.920;2023-07-29T00:41:58;98053.84;;;24.96;48.96
42519;BME280;28147;47.520;18.920;2023-07-29T00:44:23;98046.19;;;24.78;49.51
42519;BME280;28147;47.520;18.920;2023-07-29T00:46:53;98056.97;;;24.86;49.26
42519;BME280;28147;47.520;18.920;2023-07-29T00:49:20;98047.88;;;24.82;49.53
42519;BME280;28147;47.520;18.920;2023-07-29T00:51:46;98046.06;;;24.74;49.51
42519;BME280;28147;47.520;18.920;2023-07-29T00:54:11;98042.28;;;24.66;50.04
42519;BME280;28147;47.520;18.920;2023-07-29T00:56:37;98032.47;;;24.53;49.83
42519;BME280;28147;47.520;18.920;2023-07-29T00:59:03;98048.41;;;24.42;49.94
42519;BME280;28147;47.520;18.920;2023-07-29T01:01:30;98042.47;;;24.61;49.66
42519;BME280;28147;47.520;18.920;2023-07-29T01:03:56;98045.06;;;24.58;49.77
42519;BME280;28147;47.520;18.920;2023-07-29T01:09:09;98046.69;;;24.59;50.04
42519;BME280;28147;47.520;18.920;2023-07-29T01:14:34;98044.34;;;24.48;50.13
42519;BME280;28147;47.520;18.920;2023-07-29T01:17:04;98045.63;;;24.51;50.56
42519;BME280;28147;47.520;18.920;2023-07-29T01:22:13;98044.69;;;24.47;50.44
42519;BME280;28147;47.520;18.920;2023-07-29T01:24:39;98036.72;;;24.42;50.63
42519;BME280;28147;47.520;18.920;2023-07-29T01:27:05;98037.19;;;24.44;50.46
42519;BME280;28147;47.520;18.920;2023-07-29T01:29:30;98029.41;;;24.34;50.64
42519;BME280;28147;47.520;18.920;2023-07-29T01:32:01;98033.22;;;24.41;50.55
42519;BME280;28147;47.520;18.920;2023-07-29T01:34:56;98042.78;;;24.47;50.00
42519;BME280;28147;47.520;18.920;2023-07-29T01:37:26;98049.50;;;24.62;50.01
42519;BME280;28147;47.520;18.920;2023-07-29T01:39:54;98044.50;;;24.52;49.25
42519;BME280;28147;47.520;18.920;2023-07-29T01:42:21;98052.84;;;24.47;49.42
42519;BME280;28147;47.520;18.920;2023-07-29T01:44:47;98050.31;;;24.63;49.46
42519;BME280;28147;47.520;18.920;2023-07-29T01:47:13;98049.53;;;24.41;49.92
42519;BME280;28147;47.520;18.920;2023-07-29T01:49:38;98055.13;;;24.45;50.23
42519;BME280;28147;47.520;18.920;2023-07-29T01:52:03;98050.31;;;24.63;50.30
42519;BME280;28147;47.520;18.920;2023-07-29T01:54:29;98048.59;;;24.37;51.00
42519;BME280;28147;47.520;18.920;2023-07-29T01:56:54;98045.59;;;24.30;51.09
42519;BME280;28147;47.520;18.920;2023-07-29T01:59:20;98051.13;;;24.42;50.55
42519;BME280;28147;47.520;18.920;2023-07-29T02:01:45;98040.94;;;24.31;50.25
42519;BME280;28147;47.520;18.920;2023-07-29T02:04:11;98044.16;;;24.33;50.71
42519;BME280;28147;47.520;18.920;2023-07-29T02:06:37;98043.00;;;24.34;51.00
42519;BME280;28147;47.520;18.920;2023-07-29T02:09:02;98038.31;;;24.22;51.08
42519;BME280;28147;47.520;18.920;2023-07-29T02:11:29;98041.09;;;24.34;51.39
42519;BME280;28147;47.520;18.920;2023-07-29T02:13:55;98040.38;;;24.25;51.68
42519;BME280;28147;47.520;18.920;2023-07-29T02:16:21;98025.84;;;24.21;51.53
42519;BME280;28147;47.520;18.920;2023-07-29T02:18:48;98040.75;;;24.15;51.95
42519;BME280;28147;47.520;18.920;2023-07-29T02:21:14;98054.41;;;24.06;51.84
42519;BME280;28147;47.520;18.920;2023-07-29T02:23:39;98047.31;;;24.14;52.12
42519;BME280;28147;47.520;18.920;2023-07-29T02:26:05;98047.66;;;24.12;51.70
42519;BME280;28147;47.520;18.920;2023-07-29T02:28:31;98040.47;;;24.08;51.63
42519;BME280;28147;47.520;18.920;2023-07-29T02:31:16;98041.28;;;24.08;51.72
42519;BME280;28147;47.520;18.920;2023-07-29T02:33:44;98036.97;;;24.28;51.28
42519;BME280;28147;47.520;18.920;2023-07-29T02:36:11;98043.25;;;24.20;51.80
42519;BME280;28147;47.520;18.920;2023-07-29T02:38:38;98053.63;;;24.26;51.60
42519;BME280;28147;47.520;18.920;2023-07-29T02:41:03;98047.19;;;24.31;51.06
42519;BME280;28147;47.520;18.920;2023-07-29T02:43:28;98044.19;;;24.24;51.33
42519;BME280;28147;47.520;18.920;2023-07-29T02:45:54;98054.50;;;24.18;51.67
42519;BME280;28147;47.520;18.920;2023-07-29T02:48:19;98045.06;;;24.16;51.32
42519;BME280;28147;47.520;18.920;2023-07-29T02:50:44;98051.16;;;24.13;51.60
42519;BME280;28147;47.520;18.920;2023-07-29T02:53:10;98052.31;;;24.33;51.14
42519;BME280;28147;47.520;18.920;2023-07-29T02:55:35;98047.47;;;24.17;51.35
42519;BME280;28147;47.520;18.920;2023-07-29T02:58:04;98057.88;;;23.94;51.83
42519;BME280;28147;47.520;18.920;2023-07-29T03:00:31;98052.63;;;24.31;51.09
42519;BME280;28147;47.520;18.920;2023-07-29T03:02:56;98049.25;;;24.13;51.39
42519;BME280;28147;47.520;18.920;2023-07-29T03:05:22;98047.13;;;24.19;51.31
42519;BME280;28147;47.520;18.920;2023-07-29T03:07:47;98054.28;;;24.23;51.10
42519;BME280;28147;47.520;18.920;2023-07-29T03:10:13;98046.19;;;24.15;51.75
42519;BME280;28147;47.520;18.920;2023-07-29T03:12:39;98055.34;;;24.10;51.83
42519;BME280;28147;47.520;18.920;2023-07-29T03:15:05;98052.22;;;23.99;51.72
42519;BME280;28147;47.520;18.920;2023-07-29T03:17:30;98060.31;;;23.87;52.21
42519;BME280;28147;47.520;18.920;2023-07-29T03:19:56;98056.34;;;24.06;51.80
42519;BME280;28147;47.520;18.920;2023-07-29T03:22:21;98058.25;;;24.05;52.03
42519;BME280;28147;47.520;18.920;2023-07-29T03:24:46;98054.28;;;24.02;52.05
42519;BME280;28147;47.520;18.920;2023-07-29T03:27:12;98049.84;;;24.19;51.44
42519;BME280;28147;47.520;18.920;2023-07-29T03:29:38;98052.28;;;24.12;51.71
42519;BME280;28147;47.520;18.920;2023-07-29T03:32:04;98054.59;;;24.01;52.02
42519;BME280;28147;47.520;18.920;2023-07-29T03:34:29;98054.72;;;24.04;51.87
42519;BME280;28147;47.520;18.920;2023-07-29T03:36:54;98049.50;;;23.99;52.39
42519;BME280;28147;47.520;18.920;2023-07-29T03:39:20;98062.75;;;24.01;52.27
42519;BME280;28147;47.520;18.920;2023-07-29T03:41:45;98060.13;;;24.13;52.23
42519;BME280;28147;47.520;18.920;2023-07-29T03:44:10;98061.09;;;24.09;52.13
42519;BME280;28147;47.520;18.920;2023-07-29T03:46:36;98055.50;;;24.14;52.25
42519;BME280;28147;47.520;18.920;2023-07-29T03:49:01;98063.31;;;23.94;52.92
42519;BME280;28147;47.520;18.920;2023-07-29T03:51:28;98053.09;;;24.12;52.45
42519;BME280;28147;47.520;18.920;2023-07-29T03:53:53;98067.28;;;24.18;52.16
42519;BME280;28147;47.520;18.920;2023-07-29T03:56:19;98060.25;;;24.17;52.66
42519;BME280;28147;47.520;18.920;2023-07-29T03:58:45;98059.47;;;24.37;51.97
42519;BME280;28147;47.520;18.920;2023-07-29T04:01:11;98057.75;;;24.33;52.28
42519;BME280;28147;47.520;18.920;2023-07-29T04:03:37;98057.63;;;24.29;52.89
42519;BME280;28147;47.520;18.920;2023-07-29T04:06:02;98058.16;;;24.43;52.25
42519;BME280;28147;47.520;18.920;2023-07-29T04:08:28;98062.94;;;24.46;52.73
42519;BME280;28147;47.520;18.920;2023-07-29T04:10:53;98065.72;;;24.59;52.47
42519;BME280;28147;47.520;18.920;2023-07-29T04:13:18;98064.38;;;24.65;52.85
42519;BME280;28147;47.520;18.920;2023-07-29T04:15:44;98064.22;;;24.82;52.34
42519;BME280;28147;47.520;18.920;2023-07-29T04:18:10;98053.34;;;24.82;52.54
42519;BME280;28147;47.520;18.920;2023-07-29T04:20:35;98060.38;;;25.16;51.82
42519;BME280;28147;47.520;18.920;2023-07-29T04:23:00;98065.19;;;24.98;52.52
42519;BME280;28147;47.520;18.920;2023-07-29T04:25:26;98063.13;;;24.95;52.82
42519;BME280;28147;47.520;18.920;2023-07-29T04:27:51;98071.16;;;25.25;52.31
42519;BME280;28147;47.520;18.920;2023-07-29T04:30:17;98062.00;;;24.96;52.79
42519;BME280;28147;47.520;18.920;2023-07-29T04:32:42;98062.75;;;25.30;52.19
42519;BME280;28147;47.520;18.920;2023-07-29T04:35:10;98058.34;;;25.38;51.84
42519;BME280;28147;47.520;18.920;2023-07-29T04:37:35;98051.19;;;25.33;51.83
42519;BME280;28147;47.520;18.920;2023-07-29T04:40:01;98054.13;;;25.16;51.64
42519;BME280;28147;47.520;18.920;2023-07-29T04:42:27;98055.47;;;25.10;51.42
42519;BME280;28147;47.520;18.920;2023-07-29T04:44:52;98063.66;;;25.10;52.11
42519;BME280;28147;47.520;18.920;2023-07-29T04:47:17;98058.69;;;25.24;52.50
42519;BME280;28147;47.520;18.920;2023-07-29T04:49:43;98057.53;;;25.25;53.19
42519;BME280;28147;47.520;18.920;2023-07-29T04:52:08;98051.88;;;25.30;53.28
42519;BME280;28147;47.520;18.920;2023-07-29T04:54:33;98056.88;;;25.40;53.39
42519;BME280;28147;47.520;18.920;2023-07-29T04:56:59;98050.53;;;25.98;52.00
42519;BME280;28147;47.520;18.920;2023-07-29T04:59:25;98053.09;;;26.59;50.79
42519;BME280;28147;47.520;18.920;2023-07-29T05:01:50;98060.19;;;27.04;49.80
42519;BME280;28147;47.520;18.920;2023-07-29T05:04:15;98063.97;;;27.43;49.06
42519;BME280;28147;47.520;18.920;2023-07-29T05:06:41;98063.16;;;27.58;49.15
42519;BME280;28147;47.520;18.920;2023-07-29T05:09:14;98070.97;;;27.92;48.57
42519;BME280;28147;47.520;18.920;2023-07-29T05:11:41;98069.38;;;28.26;47.76
42519;BME280;28147;47.520;18.920;2023-07-29T05:14:06;98068.50;;;28.02;47.38
42519;BME280;28147;47.520;18.920;2023-07-29T05:16:32;98065.97;;;27.94;47.45
42519;BME280;28147;47.520;18.920;2023-07-29T05:18:57;98067.13;;;27.77;47.41
42519;BME280;28147;47.520;18.920;2023-07-29T05:21:23;98079.22;;;27.76;47.12
42519;BME280;28147;47.520;18.920;2023-07-29T05:23:48;98075.69;;;28.26;46.04
42519;BME280;28147;47.520;18.920;2023-07-29T05:26:13;98073.31;;;27.58;47.46
42519;BME280;28147;47.520;18.920;2023-07-29T05:28:39;98087.94;;;27.65;47.25
42519;BME280;28147;47.520;18.920;2023-07-29T05:31:04;98095.09;;;27.86;46.66
42519;BME280;28147;47.520;18.920;2023-07-29T05:33:29;98101.69;;;28.01;46.75
42519;BME280;28147;47.520;18.920;2023-07-29T05:35:55;98100.72;;;27.46;48.33
42519;BME280;28147;47.520;18.920;2023-07-29T05:38:20;98106.03;;;27.70;48.08
42519;BME280;28147;47.520;18.920;2023-07-29T05:40:48;98101.28;;;27.51;48.51
42519;BME280;28147;47.520;18.920;2023-07-29T05:43:13;98110.84;;;27.29;48.00
42519;BME280;28147;47.520;18.920;2023-07-29T05:45:40;98102.06;;;27.83;47.63
42519;BME280;28147;47.520;18.920;2023-07-29T05:48:05;98105.31;;;27.26;49.19
42519;BME280;28147;47.520;18.920;2023-07-29T05:50:31;98115.91;;;27.59;48.80
42519;BME280;28147;47.520;18.920;2023-07-29T05:52:56;98113.00;;;27.68;48.65
42519;BME280;28147;47.520;18.920;2023-07-29T05:55:21;98121.31;;;27.87;49.05
42519;BME280;28147;47.520;18.920;2023-07-29T05:57:47;98111.94;;;27.72;49.32
42519;BME280;28147;47.520;18.920;2023-07-29T06:00:12;98121.00;;;27.29;48.76
42519;BME280;28147;47.520;18.920;2023-07-29T06:02:38;98129.63;;;27.31;49.07
42519;BME280;28147;47.520;18.920;2023-07-29T06:05:04;98128.69;;;27.39;48.50
42519;BME280;28147;47.520;18.920;2023-07-29T06:07:30;98125.25;;;27.42;48.73
42519;BME280;28147;47.520;18.920;2023-07-29T06:09:57;98124.44;;;27.41;49.34
42519;BME280;28147;47.520;18.920;2023-07-29T06:12:23;98123.34;;;26.86;50.47
42519;BME280;28147;47.520;18.920;2023-07-29T06:14:48;98142.69;;;26.16;52.21
42519;BME280;28147;47.520;18.920;2023-07-29T06:17:13;98141.16;;;26.68;50.52
42519;BME280;28147;47.520;18.920;2023-07-29T06:19:39;98137.69;;;26.83;50.06
42519;BME280;28147;47.520;18.920;2023-07-29T06:22:04;98135.75;;;27.40;49.25
42519;BME280;28147;47.520;18.920;2023-07-29T06:24:31;98138.75;;;28.14;47.44
42519;BME280;28147;47.520;18.920;2023-07-29T06:26:57;98150.81;;;28.29;47.26
42519;BME280;28147;47.520;18.920;2023-07-29T06:29:22;98140.50;;;28.38;45.87
42519;BME280;28147;47.520;18.920;2023-07-29T06:31:48;98146.19;;;27.98;46.95
42519;BME280;28147;47.520;18.920;2023-07-29T06:34:13;98152.47;;;29.04;44.98
42519;BME280;28147;47.520;18.920;2023-07-29T06:36:39;98153.56;;;28.99;45.63
42519;BME280;28147;47.520;18.920;2023-07-29T06:39:04;98148.31;;;30.25;44.99
42519;BME280;28147;47.520;18.920;2023-07-29T06:41:29;98150.22;;;30.21;44.62
42519;BME280;28147;47.520;18.920;2023-07-29T06:43:55;98145.91;;;30.76;43.45
42519;BME280;28147;47.520;18.920;2023-07-29T06:46:21;98137.63;;;29.93;44.58
42519;BME280;28147;47.520;18.920;2023-07-29T06:48:46;98145.84;;;30.16;44.58
42519;BME280;28147;47.520;18.920;2023-07-29T06:51:12;98132.69;;;30.06;44.48
42519;BME280;28147;47.520;18.920;2023-07-29T06:53:37;98144.56;;;30.97;43.01
42519;BME280;28147;47.520;18.920;2023-07-29T06:56:02;98140.28;;;30.69;42.51
42519;BME280;28147;47.520;18.920;2023-07-29T06:58:28;98135.28;;;30.75;42.17
42519;BME280;28147;47.520;18.920;2023-07-29T07:00:53;98134.84;;;31.03;41.62
42519;BME280;28147;47.520;18.920;2023-07-29T07:03:19;98136.28;;;29.84;42.54
42519;BME280;28147;47.520;18.920;2023-07-29T07:05:44;98140.84;;;31.16;41.48
42519;BME280;28147;47.520;18.920;2023-07-29T07:08:10;98137.91;;;30.98;41.02
42519;BME280;28147;47.520;18.920;2023-07-29T07:10:35;98137.63;;;31.10;41.05
42519;BME280;28147;47.520;18.920;2023-07-29T07:13:01;98137.75;;;31.21;40.93
42519;BME280;28147;47.520;18.920;2023-07-29T07:15:26;98133.88;;;30.05;42.45
42519;BME280;28147;47.520;18.920;2023-07-29T07:17:51;98126.03;;;30.07;41.61
42519;BME280;28147;47.520;18.920;2023-07-29T07:20:17;98134.91;;;30.20;42.09
42519;BME280;28147;47.520;18.920;2023-07-29T07:22:42;98136.44;;;30.17;42.14
42519;BME280;28147;47.520;18.920;2023-07-29T07:25:08;98144.34;;;30.79;42.38
42519;BME280;28147;47.520;18.920;2023-07-29T07:27:33;98140.13;;;30.85;42.32
42519;BME280;28147;47.520;18.920;2023-07-29T07:29:59;98142.31;;;31.40;41.16
42519;BME280;28147;47.520;18.920;2023-07-29T07:32:24;98139.81;;;31.68;41.02
42519;BME280;28147;47.520;18.920;2023-07-29T07:34:50;98144.31;;;31.09;40.72
42519;BME280;28147;47.520;18.920;2023-07-29T07:37:15;98138.41;;;31.07;40.22
42519;BME280;28147;47.520;18.920;2023-07-29T07:39:42;98132.44;;;30.71;40.77
42519;BME280;28147;47.520;18.920;2023-07-29T07:42:08;98139.34;;;30.85;40.21
42519;BME280;28147;47.520;18.920;2023-07-29T07:44:33;98140.72;;;31.05;39.62
42519;BME280;28147;47.520;18.920;2023-07-29T07:46:59;98143.03;;;30.99;39.97
42519;BME280;28147;47.520;18.920;2023-07-29T07:49:24;98141.03;;;30.96;39.51
42519;BME280;28147;47.520;18.920;2023-07-29T07:51:50;98137.53;;;30.99;39.40
42519;BME280;28147;47.520;18.920;2023-07-29T07:54:15;98132.34;;;31.28;37.96
42519;BME280;28147;47.520;18.920;2023-07-29T07:56:40;98139.66;;;31.50;39.41
42519;BME280;28147;47.520;18.920;2023-07-29T07:59:06;98125.94;;;31.98;37.58
42519;BME280;28147;47.520;18.920;2023-07-29T08:01:36;98130.72;;;32.12;37.51
42519;BME280;28147;47.520;18.920;2023-07-29T08:04:02;98134.25;;;32.06;37.13
42519;BME280;28147;47.520;18.920;2023-07-29T08:06:27;98128.09;;;31.75;37.10
42519;BME280;28147;47.520;18.920;2023-07-29T08:08:52;98121.00;;;32.26;36.84
42519;BME280;28147;47.520;18.920;2023-07-29T08:11:18;98127.19;;;32.78;37.29
42519;BME280;28147;47.520;18.920;2023-07-29T08:13:43;98126.06;;;32.93;36.49
42519;BME280;28147;47.520;18.920;2023-07-29T08:16:08;98125.97;;;32.72;34.50
42519;BME280;28147;47.520;18.920;2023-07-29T08:18:34;98126.09;;;32.27;34.97
42519;BME280;28147;47.520;18.920;2023-07-29T08:21:00;98117.69;;;32.68;35.93
42519;BME280;28147;47.520;18.920;2023-07-29T08:23:30;98124.59;;;32.37;35.76
42519;BME280;28147;47.520;18.920;2023-07-29T08:26:00;98118.88;;;32.70;35.63
42519;BME280;28147;47.520;18.920;2023-07-29T08:28:31;98115.47;;;32.99;35.07
42519;BME280;28147;47.520;18.920;2023-07-29T08:30:56;98123.03;;;33.30;35.18
42519;BME280;28147;47.520;18.920;2023-07-29T08:33:22;98114.03;;;33.69;35.05
42519;BME280;28147;47.520;18.920;2023-07-29T08:35:47;98113.25;;;33.69;34.01
42519;BME280;28147;47.520;18.920;2023-07-29T08:38:13;98122.72;;;34.00;33.27
42519;BME280;28147;47.520;18.920;2023-07-29T08:40:45;98114.41;;;33.93;33.57
42519;BME280;28147;47.520;18.920;2023-07-29T08:43:12;98121.81;;;33.17;34.92
42519;BME280;28147;47.520;18.920;2023-07-29T08:45:39;98105.34;;;33.63;33.76
42519;BME280;28147;47.520;18.920;2023-07-29T08:48:08;98115.91;;;33.18;34.16
42519;BME280;28147;47.520;18.920;2023-07-29T08:50:35;98111.66;;;33.89;33.45
42519;BME280;28147;47.520;18.920;2023-07-29T08:53:04;98108.81;;;34.39;33.34
42519;BME280;28147;47.520;18.920;2023-07-29T08:55:29;98117.53;;;34.23;32.19
42519;BME280;28147;47.520;18.920;2023-07-29T08:57:57;98107.31;;;33.88;32.53
42519;BME280;28147;47.520;18.920;2023-07-29T09:00:22;98092.31;;;33.78;32.39
42519;BME280;28147;47.520;18.920;2023-07-29T09:02:48;98102.91;;;33.15;33.57
42519;BME280;28147;47.520;18.920;2023-07-29T09:05:13;98114.78;;;34.12;31.99
42519;BME280;28147;47.520;18.920;2023-07-29T09:07:40;98104.44;;;34.59;31.14
42519;BME280;28147;47.520;18.920;2023-07-29T09:10:08;98110.50;;;35.14;31.10
42519;BME280;28147;47.520;18.920;2023-07-29T09:12:35;98116.72;;;34.51;32.13
42519;BME280;28147;47.520;18.920;2023-07-29T09:15:01;98115.97;;;33.90;31.17
42519;BME280;28147;47.520;18.920;2023-07-29T09:17:26;98098.97;;;34.31;30.91
42519;BME280;28147;47.520;18.920;2023-07-29T09:19:51;98104.81;;;34.65;30.63
42519;BME280;28147;47.520;18.920;2023-07-29T09:22:18;98103.03;;;35.07;31.13
42519;BME280;28147;47.520;18.920;2023-07-29T09:24:45;98101.41;;;34.00;30.04
42519;BME280;28147;47.520;18.920;2023-07-29T09:27:24;98095.06;;;34.18;28.93
42519;BME280;28147;47.520;18.920;2023-07-29T09:29:49;98091.88;;;34.30;29.50
42519;BME280;28147;47.520;18.920;2023-07-29T09:32:22;98090.19;;;34.61;29.77
42519;BME280;28147;47.520;18.920;2023-07-29T09:34:47;98085.72;;;34.85;28.87
42519;BME280;28147;47.520;18.920;2023-07-29T09:37:31;98092.66;;;34.27;28.51
42519;BME280;28147;47.520;18.920;2023-07-29T09:39:57;98091.00;;;34.58;30.70
42519;BME280;28147;47.520;18.920;2023-07-29T09:42:23;98089.41;;;34.60;29.78
42519;BME280;28147;47.520;18.920;2023-07-29T09:44:50;98083.91;;;34.53;29.49
42519;BME280;28147;47.520;18.920;2023-07-29T09:47:23;98089.38;;;34.68;28.32
42519;BME280;28147;47.520;18.920;2023-07-29T09:49:49;98093.47;;;34.17;28.97
42519;BME280;28147;47.520;18.920;2023-07-29T09:52:19;98085.53;;;34.36;28.63
42519;BME280;28147;47.520;18.920;2023-07-29T09:54:46;98090.88;;;34.90;29.05
42519;BME280;28147;47.520;18.920;2023-07-29T09:57:17;98089.19;;;35.10;28.52
42519;BME280;28147;47.520;18.920;2023-07-29T09:59:43;98084.47;;;35.04;28.43
42519;BME280;28147;47.520;18.920;2023-07-29T10:02:16;98083.75;;;35.55;28.69
42519;BME280;28147;47.520;18.920;2023-07-29T10:04:42;98084.16;;;35.57;28.50
42519;BME280;28147;47.520;18.920;2023-07-29T10:07:09;98082.34;;;35.26;27.71
42519;BME280;28147;47.520;18.920;2023-07-29T10:09:36;98080.53;;;35.05;28.13
42519;BME280;28147;47.520;18.920;2023-07-29T10:12:05;98083.94;;;34.39;29.16
42519;BME280;28147;47.520;18.920;2023-07-29T10:14:31;98077.53;;;34.67;28.70
42519;BME280;28147;47.520;18.920;2023-07-29T10:16:57;98073.00;;;33.71;30.44
42519;BME280;28147;47.520;18.920;2023-07-29T10:19:24;98081.59;;;33.05;31.31
42519;BME280;28147;47.520;18.920;2023-07-29T10:21:51;98079.31;;;33.61;31.63
42519;BME280;28147;47.520;18.920;2023-07-29T10:24:19;98075.31;;;33.15;30.00
42519;BME280;28147;47.520;18.920;2023-07-29T10:26:49;98077.94;;;32.76;31.96
42519;BME280;28147;47.520;18.920;2023-07-29T10:29:18;98078.84;;;33.02;32.34
42519;BME280;28147;47.520;18.920;2023-07-29T10:31:45;98074.91;;;33.10;32.22
42519;BME280;28147;47.520;18.920;2023-07-29T10:34:12;98079.94;;;32.83;31.90
42519;BME280;28147;47.520;18.920;2023-07-29T10:36:39;98079.28;;;33.36;32.93
42519;BME280;28147;47.520;18.920;2023-07-29T10:39:07;98076.13;;;33.41;33.46
42519;BME280;28147;47.520;18.920;2023-07-29T10:42:02;98075.78;;;33.46;33.69
42519;BME280;28147;47.520;18.920;2023-07-29T10:47:11;98076.94;;;33.52;33.02
42519;BME280;28147;47.520;18.920;2023-07-29T10:49:43;98078.50;;;33.93;33.22
42519;BME280;28147;47.520;18.920;2023-07-29T10:52:15;98075.00;;;34.98;31.52
42519;BME280;28147;47.520;18.920;2023-07-29T10:54:44;98074.63;;;34.99;31.06
42519;BME280;28147;47.520;18.920;2023-07-29T10:57:13;98065.75;;;34.45;31.18
42519;BME280;28147;47.520;18.920;2023-07-29T10:59:40;98077.00;;;34.94;31.64
42519;BME280;28147;47.520;18.920;2023-07-29T11:02:15;98079.50;;;35.40;30.40
42519;BME280;28147;47.520;18.920;2023-07-29T11:04:50;98076.03;;;35.25;31.06
42519;BME280;28147;47.520;18.920;2023-07-29T11:12:50;98079.84;;;32.51;33.76
42519;BME280;28147;47.520;18.920;2023-07-29T11:17:52;98071.38;;;33.45;33.75
42519;BME280;28147;47.520;18.920;2023-07-29T11:20:28;98051.66;;;33.22;31.73
42519;BME280;28147;47.520;18.920;2023-07-29T11:22:56;98069.84;;;33.65;31.69
42519;BME280;28147;47.520;18.920;2023-07-29T11:25:24;98065.81;;;32.95;33.70
42519;BME280;28147;47.520;18.920;2023-07-29T11:27:54;98063.50;;;33.15;33.14
42519;BME280;28147;47.520;18.920;2023-07-29T11:30:20;98060.38;;;33.74;32.70
42519;BME280;28147;47.520;18.920;2023-07-29T11:32:46;98054.72;;;34.34;32.23
42519;BME280;28147;47.520;18.920;2023-07-29T11:35:12;98065.13;;;33.59;32.50
42519;BME280;28147;47.520;18.920;2023-07-29T11:37:40;98069.72;;;34.44;32.91
42519;BME280;28147;47.520;18.920;2023-07-29T11:40:06;98069.09;;;34.99;31.06
42519;BME280;28147;47.520;18.920;2023-07-29T11:42:36;98060.16;;;34.70;29.91
42519;BME280;28147;47.520;18.920;2023-07-29T11:45:05;98066.31;;;33.76;31.75
42519;BME280;28147;47.520;18.920;2023-07-29T11:47:32;98059.44;;;34.41;32.38
42519;BME280;28147;47.520;18.920;2023-07-29T11:50:01;98061.31;;;34.69;29.51
42519;BME280;28147;47.520;18.920;2023-07-29T11:52:27;98046.47;;;34.27;30.30
42519;BME280;28147;47.520;18.920;2023-07-29T11:54:53;98059.50;;;34.27;31.34
42519;BME280;28147;47.520;18.920;2023-07-29T11:57:19;98049.69;;;33.86;31.37
42519;BME280;28147;47.520;18.920;2023-07-29T11:59:46;98043.94;;;34.69;31.21
42519;BME280;28147;47.520;18.920;2023-07-29T12:02:16;98048.53;;;33.84;31.29
42519;BME280;28147;47.520;18.920;2023-07-29T12:04:45;98044.16;;;33.83;30.18
42519;BME280;28147;47.520;18.920;2023-07-29T12:07:13;98045.00;;;33.51;30.34
42519;BME280;28147;47.520;18.920;2023-07-29T12:09:40;98052.88;;;33.63;31.71
42519;BME280;28147;47.520;18.920;2023-07-29T12:12:06;98040.50;;;34.36;30.57
42519;BME280;28147;47.520;18.920;2023-07-29T12:14:32;98046.00;;;34.54;30.22
42519;BME280;28147;47.520;18.920;2023-07-29T12:17:06;98024.88;;;33.69;30.02
42519;BME280;28147;47.520;18.920;2023-07-29T12:19:34;98021.63;;;34.13;31.80
42519;BME280;28147;47.520;18.920;2023-07-29T12:22:01;98032.75;;;34.02;30.53
42519;BME280;28147;47.520;18.920;2023-07-29T12:24:27;98029.56;;;34.11;29.76
42519;BME280;28147;47.520;18.920;2023-07-29T12:26:52;98026.47;;;33.34;30.57
42519;BME280;28147;47.520;18.920;2023-07-29T12:29:19;98023.22;;;34.18;30.75
42519;BME280;28147;47.520;18.920;2023-07-29T12:31:47;98024.47;;;33.74;31.16
42519;BME280;28147;47.520;18.920;2023-07-29T12:34:19;98035.91;;;33.26;31.16
42519;BME280;28147;47.520;18.920;2023-07-29T12:36:46;98035.88;;;33.83;30.57
42519;BME280;28147;47.520;18.920;2023-07-29T12:39:26;98023.63;;;34.09;31.29
42519;BME280;28147;47.520;18.920;2023-07-29T12:41:53;98021.31;;;33.39;31.80
42519;BME280;28147;47.520;18.920;2023-07-29T12:44:19;98021.53;;;32.45;32.48
42519;BME280;28147;47.520;18.920;2023-07-29T12:46:45;98024.03;;;32.93;32.89
42519;BME280;28147;47.520;18.920;2023-07-29T12:49:10;98021.72;;;33.16;32.60
42519;BME280;28147;47.520;18.920;2023-07-29T12:51:36;98008.72;;;33.46;31.51
42519;BME280;28147;47.520;18.920;2023-07-29T12:54:03;98016.19;;;33.84;31.95
42519;BME280;28147;47.520;18.920;2023-07-29T12:56:29;98016.63;;;33.58;32.27
42519;BME280;28147;47.520;18.920;2023-07-29T12:58:56;98012.22;;;34.03;31.40
42519;BME280;28147;47.520;18.920;2023-07-29T13:01:22;98002.75;;;34.01;31.83
42519;BME280;28147;47.520;18.920;2023-07-29T13:03:47;98004.78;;;33.50;31.57
42519;BME280;28147;47.520;18.920;2023-07-29T13:06:13;98002.78;;;33.43;31.70